aerodrome LA FERTE GAUCHER, LFFG, pilots, aviation, flying | pilotspace.eu

LA FERTE GAUCHER

aerodrome LA FERTE GAUCHER

ICAO/ID: LFFG
France
web: Réservé au parachutisme et aux avions de servitude
show on the map

LFPM 170930Z AUTO 14005KT 110V180 9999 NSC 14/M00 Q1022

TAF LFPG 170500Z 1706/1812 11005KT CAVOK BECMG 1710/1712 24005KT PROB40 TEMPO 1803/1806 BKN030 TX20/1716Z TN06/1706Z

general information

altitude: 538 ft
latitude: 48 45 21 N
longitude: 003 16 36 E

traffic information

RWY: 05/23: 3,609 ft (1,100 m) — surface unknown
report copyright

Online pilot logbook: free for each registered member! http://www.pilotlogbook.eu


last flights

RECENTLY ADDED

Let.příručka ALTO

09/03/2014 (7x)

Roman Máca

Let.příručka ALTO

09/03/2014 (1x)

Roman Máca

ULRBK

08/02/2014 (10x)

northwolf

L-13 AC - akrobacie

L-13 AC - akrobacie

05/02/2014 (14x)

Davidlet

inzerát

inzerát

28/09/2013 (21x)

béza48

landing LZIB

landing LZIB

17/09/2013 (24x)

Kovino

tulák zelený

tulák zelený

17/09/2013 (18x)

Ivan Wolf

PPJ SK - Martin 2013

PPJ SK - Martin 2013

25/08/2013 (2x)

Kulda